Time;durP1;ratioP1;P1;durP2;ratioP2;P2;SDS_P1;SDS_P2;PMS_P1;PMS_P2;Temp;Humidity;BMP_temperature;BMP_pressure;BME280_temperature;BME280_humidity;BME280_pressure;Samples;Min_cycle;Max_cycle;Signal;HPM_P1;HPM_P2
2024/02/24 00:01:17;;;;;;;2.50;1.00;;;6.80;99.90;;;;;;4982945;28;20513;-72
2024/02/24 00:03:43;;;;;;;1.93;1.37;;;6.70;99.90;;;;;;4976149;28;20841;-72
2024/02/24 00:06:10;;;;;;;1.20;0.90;;;6.70;99.90;;;;;;4973680;28;20818;-73
2024/02/24 00:08:39;;;;;;;2.93;1.03;;;6.80;99.90;;;;;;4977211;28;20485;-73
2024/02/24 00:11:05;;;;;;;1.50;1.33;;;6.70;99.90;;;;;;4983383;28;20465;-72
2024/02/24 00:13:32;;;;;;;1.20;0.80;;;6.60;99.90;;;;;;4983717;28;20978;-73
2024/02/24 00:15:58;;;;;;;1.10;0.90;;;6.70;99.90;;;;;;4982012;28;20466;-73
2024/02/24 00:18:25;;;;;;;1.10;1.00;;;6.50;99.90;;;;;;4977254;28;20515;-72
2024/02/24 00:20:52;;;;;;;1.10;1.00;;;6.50;99.90;;;;;;4986177;28;20214;-72
2024/02/24 00:23:18;;;;;;;1.63;1.33;;;6.60;99.90;;;;;;4978873;28;20440;-73
2024/02/24 00:25:46;;;;;;;1.57;1.47;;;6.60;99.90;;;;;;4976403;28;20470;-73
2024/02/24 00:28:13;;;;;;;1.10;0.90;;;6.50;99.90;;;;;;4979729;28;20489;-73
2024/02/24 00:30:40;;;;;;;1.20;0.80;;;6.40;99.90;;;;;;4979560;28;20467;-73
2024/02/24 00:33:07;;;;;;;0.90;0.70;;;6.40;99.90;;;;;;4973269;28;20477;-72
2024/02/24 00:35:33;;;;;;;1.47;1.00;;;6.40;99.90;;;;;;4981872;28;20572;-72
2024/02/24 00:38:00;;;;;;;0.97;0.77;;;6.40;99.90;;;;;;4976550;28;20496;-73
2024/02/24 00:40:27;;;;;;;3.03;1.63;;;6.40;99.90;;;;;;4974879;28;20885;-71
2024/02/24 00:42:55;;;;;;;1.40;1.00;;;6.30;99.90;;;;;;4972736;28;20576;-73
2024/02/24 00:45:22;;;;;;;1.10;1.00;;;6.40;99.90;;;;;;4978385;28;20494;-73
2024/02/24 00:47:49;;;;;;;1.00;0.90;;;6.40;99.90;;;;;;4981869;28;20433;-73
2024/02/24 00:50:15;;;;;;;7.50;1.13;;;6.50;99.90;;;;;;4970213;28;21505;-72
2024/02/24 00:52:42;;;;;;;0.97;0.87;;;6.50;99.90;;;;;;4976218;28;20510;-73
2024/02/24 00:55:10;;;;;;;0.90;0.70;;;6.70;99.90;;;;;;4974254;28;21311;-73
2024/02/24 00:57:36;;;;;;;1.40;1.20;;;6.70;99.90;;;;;;4979479;28;20467;-74
2024/02/24 01:00:06;;;;;;;1.37;0.80;;;6.60;99.90;;;;;;4972368;28;20456;-73
2024/02/24 01:02:33;;;;;;;1.50;0.80;;;6.60;99.90;;;;;;4983128;28;20440;-72
2024/02/24 01:04:59;;;;;;;1.00;0.70;;;6.50;99.90;;;;;;4968543;28;21157;-72
2024/02/24 01:07:26;;;;;;;2.43;1.00;;;6.60;99.90;;;;;;4972489;28;20448;-72
2024/02/24 01:09:53;;;;;;;1.30;1.20;;;6.60;99.90;;;;;;4976239;28;20561;-73
2024/02/24 01:12:20;;;;;;;1.10;0.90;;;6.60;99.90;;;;;;4979781;28;20950;-73
2024/02/24 01:14:46;;;;;;;1.00;0.70;;;6.60;99.90;;;;;;4979623;28;20443;-73
2024/02/24 01:17:15;;;;;;;1.30;1.07;;;6.50;99.90;;;;;;4977931;28;20531;-72
2024/02/24 01:19:42;;;;;;;1.30;0.80;;;6.30;99.90;;;;;;4978701;28;20484;-72
2024/02/24 01:22:09;;;;;;;1.00;0.70;;;6.30;99.90;;;;;;4974012;28;20448;-72
2024/02/24 01:24:35;;;;;;;1.20;1.10;;;6.30;99.90;;;;;;4975424;28;20445;-74
2024/02/24 01:27:02;;;;;;;1.20;1.07;;;6.40;99.90;;;;;;4976720;28;20924;-73
2024/02/24 01:29:29;;;;;;;1.00;0.70;;;6.30;99.90;;;;;;4977936;28;20496;-73
2024/02/24 01:31:59;;;;;;;1.07;0.97;;;6.30;99.90;;;;;;4972263;28;20442;-73
2024/02/24 01:34:27;;;;;;;1.37;1.27;;;6.30;99.90;;;;;;4974408;28;20633;-71
2024/02/24 01:36:54;;;;;;;1.00;0.83;;;6.30;99.90;;;;;;4973697;28;20507;-73
2024/02/24 01:39:21;;;;;;;1.20;0.80;;;6.30;99.90;;;;;;4976112;28;20498;-73
2024/02/24 01:41:48;;;;;;;1.00;0.90;;;6.30;99.90;;;;;;4973766;28;20537;-73
2024/02/24 01:44:18;;;;;;;1.50;0.83;;;6.30;99.90;;;;;;4977454;28;20432;-73
2024/02/24 01:46:45;;;;;;;1.10;0.90;;;6.30;99.90;;;;;;4975887;28;20481;-73
2024/02/24 01:49:11;;;;;;;1.10;1.00;;;6.20;99.90;;;;;;4977131;28;20482;-73
2024/02/24 01:51:40;;;;;;;1.13;0.90;;;6.20;99.90;;;;;;4980363;28;20443;-72
2024/02/24 01:54:07;;;;;;;1.27;0.90;;;6.20;99.90;;;;;;4981912;28;20443;-72
2024/02/24 01:56:35;;;;;;;1.73;0.90;;;6.00;99.90;;;;;;4980108;28;20485;-72
2024/02/24 01:59:02;;;;;;;1.30;1.03;;;6.10;99.90;;;;;;4970510;28;20848;-72
2024/02/24 02:01:30;;;;;;;1.50;1.20;;;6.20;99.90;;;;;;4977847;28;20820;-72
2024/02/24 02:03:57;;;;;;;1.10;0.87;;;6.30;99.90;;;;;;4963937;28;20465;-72
2024/02/24 02:06:28;;;;;;;1.00;0.80;;;6.30;99.90;;;;;;4972082;28;20440;-72
2024/02/24 02:08:57;;;;;;;1.10;1.00;;;6.40;99.90;;;;;;4971632;28;20481;-72
2024/02/24 02:11:24;;;;;;;1.20;0.97;;;6.40;99.90;;;;;;4973198;28;20522;-72
2024/02/24 02:13:50;;;;;;;1.57;0.90;;;6.40;99.90;;;;;;4976643;28;21339;-73
2024/02/24 02:16:17;;;;;;;1.00;0.80;;;6.40;99.90;;;;;;4973586;28;20472;-72
2024/02/24 02:18:45;;;;;;;1.20;1.10;;;6.40;99.90;;;;;;4979706;28;20486;-72
2024/02/24 02:21:12;;;;;;;2.33;0.90;;;6.40;99.90;;;;;;4975209;28;20531;-72
2024/02/24 02:23:40;;;;;;;1.60;1.10;;;6.30;99.90;;;;;;4977831;28;21009;-73
2024/02/24 02:26:07;;;;;;;1.20;0.90;;;6.30;99.90;;;;;;4972452;28;20467;-73
2024/02/24 02:28:33;;;;;;;1.00;0.90;;;6.10;99.90;;;;;;4979259;28;20469;-72
2024/02/24 02:31:01;;;;;;;11.43;1.27;;;6.00;99.90;;;;;;4976737;28;20807;-72
2024/02/24 02:33:28;;;;;;;0.90;0.70;;;6.00;99.90;;;;;;4976484;28;20797;-72
2024/02/24 02:35:55;;;;;;;1.50;1.10;;;6.10;99.90;;;;;;4972968;28;20456;-72
2024/02/24 02:38:21;;;;;;;2.73;1.07;;;5.90;99.90;;;;;;4975725;28;20494;-72
2024/02/24 02:40:49;;;;;;;0.90;0.80;;;6.00;99.90;;;;;;4976978;28;20467;-72
2024/02/24 02:43:16;;;;;;;3.97;0.93;;;6.00;99.90;;;;;;4976130;28;20437;-72
2024/02/24 02:45:43;;;;;;;1.63;0.90;;;6.00;99.90;;;;;;4977259;28;20474;-71
2024/02/24 02:48:11;;;;;;;0.90;0.70;;;5.90;99.90;;;;;;4973163;28;20470;-71
2024/02/24 02:50:37;;;;;;;0.90;0.70;;;5.90;99.90;;;;;;4983394;28;20463;-72
2024/02/24 02:53:04;;;;;;;0.90;0.70;;;5.90;99.90;;;;;;4976340;28;20470;-72
2024/02/24 02:55:31;;;;;;;3.27;1.13;;;5.80;99.90;;;;;;4981465;28;20457;-72
2024/02/24 02:57:59;;;;;;;1.30;1.20;;;5.90;99.90;;;;;;4974237;28;20812;-72
2024/02/24 03:00:26;;;;;;;0.97;0.80;;;5.90;99.90;;;;;;4982322;28;20463;-72
2024/02/24 03:02:53;;;;;;;1.93;1.00;;;5.70;99.90;;;;;;4976981;28;20461;-73
2024/02/24 03:05:19;;;;;;;1.83;0.90;;;5.80;99.90;;;;;;4974926;28;20994;-72
2024/02/24 03:07:46;;;;;;;1.00;0.70;;;5.70;99.90;;;;;;4976041;28;20440;-73
2024/02/24 03:10:14;;;;;;;1.00;0.90;;;5.70;99.90;;;;;;4979645;28;20470;-73
2024/02/24 03:12:41;;;;;;;0.90;0.77;;;5.70;99.90;;;;;;4982215;28;20947;-72
2024/02/24 03:15:10;;;;;;;2.47;0.83;;;5.70;99.90;;;;;;4982202;28;20443;-72
2024/02/24 03:17:36;;;;;;;1.20;0.87;;;5.70;99.90;;;;;;4980173;28;20462;-72
2024/02/24 03:20:04;;;;;;;0.90;0.63;;;5.80;99.90;;;;;;4977182;28;20495;-72
2024/02/24 03:22:33;;;;;;;0.93;0.80;;;5.80;99.90;;;;;;4973007;28;20589;-72
2024/02/24 03:24:59;;;;;;;1.67;1.27;;;5.70;99.90;;;;;;4972305;28;20526;-72
2024/02/24 03:27:26;;;;;;;1.00;0.80;;;5.80;99.90;;;;;;4975290;28;21051;-72
2024/02/24 03:29:53;;;;;;;1.00;0.70;;;5.80;99.90;;;;;;4973593;28;20460;-72
2024/02/24 03:32:21;;;;;;;1.10;0.90;;;5.80;99.90;;;;;;4980216;28;20453;-72
2024/02/24 03:34:47;;;;;;;0.90;0.70;;;5.80;99.90;;;;;;4976897;28;20433;-72
2024/02/24 03:37:14;;;;;;;0.90;0.80;;;5.80;99.90;;;;;;4981824;28;20458;-72
2024/02/24 03:39:41;;;;;;;0.90;0.70;;;5.80;99.90;;;;;;4977096;28;20468;-71
2024/02/24 03:42:08;;;;;;;0.90;0.80;;;5.70;99.90;;;;;;4973106;28;20504;-73
2024/02/24 03:44:34;;;;;;;1.00;0.80;;;5.70;99.90;;;;;;4974863;28;20429;-73
2024/02/24 03:47:01;;;;;;;0.90;0.70;;;5.80;99.90;;;;;;4977496;28;20462;-73
2024/02/24 03:49:29;;;;;;;1.33;0.93;;;5.90;99.90;;;;;;4978148;28;20489;-73
2024/02/24 03:51:56;;;;;;;1.13;1.03;;;6.10;99.90;;;;;;4975339;28;20980;-73
2024/02/24 03:54:24;;;;;;;1.43;1.00;;;6.20;99.90;;;;;;4978143;28;20452;-73
2024/02/24 03:56:52;;;;;;;2.57;0.80;;;6.20;99.90;;;;;;4978302;28;20480;-73
2024/02/24 03:59:19;;;;;;;1.40;1.03;;;6.20;99.90;;;;;;4977547;28;20497;-73
2024/02/24 04:01:46;;;;;;;1.80;0.77;;;6.30;99.90;;;;;;4978059;28;20461;-73
2024/02/24 04:04:13;;;;;;;1.87;1.20;;;6.30;99.90;;;;;;4977551;28;20478;-72
2024/02/24 04:06:43;;;;;;;1.10;1.00;;;6.30;99.90;;;;;;4978987;28;20452;-73
2024/02/24 04:09:10;;;;;;;2.07;0.90;;;6.40;99.90;;;;;;4971080;28;20493;-72
2024/02/24 04:11:36;;;;;;;5.17;1.20;;;6.20;99.90;;;;;;4978092;28;20469;-71
2024/02/24 04:14:03;;;;;;;1.10;0.90;;;6.20;99.90;;;;;;4971734;28;20470;-72
2024/02/24 04:16:30;;;;;;;2.23;1.03;;;6.10;99.90;;;;;;4974054;28;20428;-73
2024/02/24 04:18:57;;;;;;;0.90;0.70;;;6.00;99.90;;;;;;4979686;28;20472;-72
2024/02/24 04:21:23;;;;;;;1.10;1.00;;;6.20;99.90;;;;;;4975253;28;20467;-72
2024/02/24 04:23:51;;;;;;;0.90;0.80;;;6.10;99.90;;;;;;4976592;28;20980;-72
2024/02/24 04:26:18;;;;;;;1.10;0.70;;;6.30;99.90;;;;;;4973894;28;20472;-72
2024/02/24 04:28:45;;;;;;;1.20;1.00;;;6.30;99.90;;;;;;4978116;28;20486;-72
2024/02/24 04:31:12;;;;;;;2.33;1.00;;;6.40;99.90;;;;;;4971675;28;20470;-72
2024/02/24 04:33:38;;;;;;;1.33;0.90;;;6.40;99.90;;;;;;4979116;28;20448;-72
2024/02/24 04:36:06;;;;;;;0.90;0.70;;;6.30;99.90;;;;;;4977391;28;20916;-71
2024/02/24 04:38:33;;;;;;;1.20;0.80;;;6.30;99.90;;;;;;4973621;28;20827;-72
2024/02/24 04:41:01;;;;;;;1.07;0.97;;;6.20;99.90;;;;;;4975711;28;20584;-73
2024/02/24 04:43:27;;;;;;;0.90;0.70;;;6.00;99.90;;;;;;4973393;28;20435;-72
2024/02/24 04:45:54;;;;;;;1.10;1.00;;;6.20;99.90;;;;;;4971002;28;20836;-71
2024/02/24 04:48:21;;;;;;;1.53;1.00;;;6.10;99.90;;;;;;4970843;28;21016;-73
2024/02/24 04:50:48;;;;;;;1.30;1.10;;;6.00;99.90;;;;;;4973601;28;20494;-72
2024/02/24 04:53:14;;;;;;;0.90;0.70;;;6.10;99.90;;;;;;4976216;28;20458;-72
2024/02/24 04:55:41;;;;;;;0.97;0.80;;;6.10;99.90;;;;;;4976935;28;20488;-72
2024/02/24 04:58:09;;;;;;;2.20;2.00;;;6.10;99.90;;;;;;4971497;28;20437;-72
2024/02/24 05:00:36;;;;;;;1.10;0.90;;;6.20;99.90;;;;;;4976428;28;20844;-72
2024/02/24 05:03:08;;;;;;;1.00;0.90;;;6.20;99.90;;;;;;5009033;23;20499;-72
2024/02/24 05:05:58;;;;;;;0.90;0.73;;;6.10;99.90;;;;;;4973834;28;20557;-73
2024/02/24 05:08:25;;;;;;;11.20;1.23;;;6.30;99.90;;;;;;4974396;28;20600;-72
2024/02/24 05:10:51;;;;;;;1.20;0.80;;;6.20;99.90;;;;;;4979183;28;20462;-72
2024/02/24 05:13:19;;;;;;;1.30;1.20;;;6.30;99.90;;;;;;4972315;28;20476;-73
2024/02/24 05:15:46;;;;;;;1.00;0.80;;;6.40;99.90;;;;;;4978413;28;20548;-73
2024/02/24 05:18:13;;;;;;;1.20;0.90;;;6.40;99.90;;;;;;4974449;28;20456;-72
2024/02/24 05:20:40;;;;;;;1.10;1.00;;;6.40;99.90;;;;;;4971533;28;20464;-72
2024/02/24 05:23:06;;;;;;;2.10;0.80;;;6.40;99.90;;;;;;4977348;28;20466;-72
2024/02/24 05:25:34;;;;;;;1.87;1.40;;;6.40;99.90;;;;;;4975362;28;20432;-72
2024/02/24 05:28:00;;;;;;;2.13;1.20;;;6.30;99.90;;;;;;4980189;28;20434;-72
2024/02/24 05:30:29;;;;;;;0.90;0.70;;;6.30;99.90;;;;;;4983205;28;20432;-72
2024/02/24 05:32:56;;;;;;;4.33;1.07;;;6.40;99.90;;;;;;4978623;28;20483;-72
2024/02/24 05:35:22;;;;;;;1.70;1.30;;;6.40;99.90;;;;;;4976702;28;20436;-73
2024/02/24 05:37:49;;;;;;;2.40;1.10;;;6.30;99.90;;;;;;4981942;28;20625;-72
2024/02/24 05:40:17;;;;;;;1.30;1.13;;;6.40;99.90;;;;;;4968914;28;20860;-73
2024/02/24 05:42:44;;;;;;;0.90;0.70;;;6.60;99.90;;;;;;4977677;28;20497;-72
2024/02/24 05:45:11;;;;;;;1.60;0.87;;;6.60;99.90;;;;;;4975923;28;20458;-73
2024/02/24 05:47:39;;;;;;;1.00;0.70;;;6.60;99.90;;;;;;4978638;28;20803;-73
2024/02/24 05:50:06;;;;;;;1.60;0.90;;;6.60;99.90;;;;;;4980853;28;20452;-73
2024/02/24 05:52:33;;;;;;;0.90;0.70;;;6.60;99.90;;;;;;4979072;28;20448;-73
2024/02/24 05:55:00;;;;;;;0.90;0.80;;;6.60;99.90;;;;;;4975741;28;20447;-73
2024/02/24 05:57:26;;;;;;;1.00;0.80;;;6.40;99.90;;;;;;4974085;28;20488;-73
2024/02/24 05:59:53;;;;;;;1.50;1.40;;;6.40;99.90;;;;;;4973829;28;21013;-73
2024/02/24 06:02:20;;;;;;;4.50;1.07;;;6.50;99.90;;;;;;4978633;28;20497;-73
2024/02/24 06:04:48;;;;;;;1.10;0.80;;;6.40;99.90;;;;;;4975442;28;20460;-73
2024/02/24 06:07:15;;;;;;;0.90;0.67;;;6.40;99.90;;;;;;4973481;28;20456;-73
2024/02/24 06:09:42;;;;;;;1.00;0.80;;;6.50;99.90;;;;;;4975767;28;20477;-73
2024/02/24 06:12:09;;;;;;;1.00;0.80;;;6.50;99.90;;;;;;4977530;28;20535;-73
2024/02/24 06:14:36;;;;;;;1.10;0.90;;;6.60;99.90;;;;;;4974584;28;20444;-73
2024/02/24 06:17:03;;;;;;;1.40;0.90;;;6.70;99.90;;;;;;4966639;28;20462;-73
2024/02/24 06:19:30;;;;;;;1.00;0.80;;;6.60;99.90;;;;;;4980759;28;20490;-73
2024/02/24 06:21:58;;;;;;;0.90;0.70;;;6.60;99.90;;;;;;4978719;28;20434;-73
2024/02/24 06:24:25;;;;;;;2.13;1.00;;;6.60;99.90;;;;;;4977514;28;20480;-73
2024/02/24 06:26:51;;;;;;;0.90;0.70;;;6.60;99.90;;;;;;4976383;28;20490;-73
2024/02/24 06:29:18;;;;;;;0.90;0.70;;;6.60;99.90;;;;;;4972059;28;20615;-73
2024/02/24 06:31:45;;;;;;;1.10;0.80;;;6.60;99.90;;;;;;4976382;28;21325;-73
2024/02/24 06:34:12;;;;;;;0.90;0.80;;;6.50;99.90;;;;;;4976008;28;21036;-72
2024/02/24 06:36:38;;;;;;;2.23;1.00;;;6.60;99.90;;;;;;4973067;28;20451;-74
2024/02/24 06:39:07;;;;;;;1.30;1.20;;;6.60;99.90;;;;;;4979029;28;20493;-74
2024/02/24 06:41:33;;;;;;;1.00;0.90;;;6.60;99.90;;;;;;4981085;28;20465;-74
2024/02/24 06:44:00;;;;;;;1.30;0.90;;;6.60;99.90;;;;;;4986968;28;20445;-74
2024/02/24 06:46:27;;;;;;;1.77;0.90;;;6.70;99.90;;;;;;4982611;28;20793;-74
2024/02/24 06:48:54;;;;;;;3.53;0.90;;;6.70;99.90;;;;;;4982262;28;20483;-74
2024/02/24 06:51:21;;;;;;;0.90;0.80;;;6.80;99.90;;;;;;4985798;28;20465;-74
2024/02/24 06:53:48;;;;;;;2.63;1.00;;;6.80;99.90;;;;;;4980925;28;20470;-74
2024/02/24 06:56:20;;;;;;;1.93;0.80;;;6.80;99.90;;;;;;4983361;28;20534;-74
2024/02/24 06:58:47;;;;;;;1.50;1.40;;;6.90;99.90;;;;;;4980362;28;21048;-74
2024/02/24 07:01:21;;;;;;;1.07;0.97;;;6.90;99.90;;;;;;4983114;28;20497;-73
2024/02/24 07:03:48;;;;;;;1.00;0.73;;;6.90;99.90;;;;;;4983950;28;20475;-73
2024/02/24 07:06:15;;;;;;;1.20;1.10;;;6.90;99.90;;;;;;4984317;28;20569;-75
2024/02/24 07:08:42;;;;;;;1.10;0.80;;;7.00;99.90;;;;;;4982228;28;20904;-74
2024/02/24 07:11:09;;;;;;;0.90;0.70;;;7.00;99.90;;;;;;4984789;28;20446;-74
2024/02/24 07:13:37;;;;;;;0.90;0.70;;;7.00;99.90;;;;;;4984904;28;20846;-74
2024/02/24 07:16:04;;;;;;;2.10;0.90;;;7.10;99.90;;;;;;4984081;28;20454;-74
2024/02/24 07:18:31;;;;;;;1.00;0.80;;;7.20;99.90;;;;;;4983091;28;20485;-74
2024/02/24 07:20:58;;;;;;;1.10;0.80;;;7.20;99.90;;;;;;4978996;28;20504;-73
2024/02/24 07:23:24;;;;;;;1.10;0.90;;;7.10;99.90;;;;;;4979842;28;20456;-74
2024/02/24 07:25:51;;;;;;;2.10;0.90;;;7.10;99.90;;;;;;4979643;28;20434;-73
2024/02/24 07:28:18;;;;;;;1.00;0.80;;;7.00;99.90;;;;;;4980037;28;20448;-74
2024/02/24 07:30:46;;;;;;;3.80;1.20;;;7.10;99.90;;;;;;4985524;28;20795;-73
2024/02/24 07:33:13;;;;;;;1.57;1.47;;;7.10;99.90;;;;;;4981017;28;21071;-73
2024/02/24 07:35:40;;;;;;;2.30;1.10;;;7.10;99.90;;;;;;4980500;28;20477;-73
2024/02/24 07:38:06;;;;;;;0.90;0.80;;;7.00;99.90;;;;;;4980854;28;20441;-73
2024/02/24 07:40:34;;;;;;;0.97;0.80;;;7.00;99.90;;;;;;4982688;28;20487;-73
2024/02/24 07:43:01;;;;;;;1.67;1.13;;;7.10;99.90;;;;;;4981386;28;20536;-74
2024/02/24 07:45:28;;;;;;;1.13;1.03;;;7.10;99.90;;;;;;4979805;28;20437;-73
2024/02/24 07:47:56;;;;;;;1.97;1.77;;;7.10;99.90;;;;;;4965083;28;20456;-73
2024/02/24 07:50:23;;;;;;;0.90;0.70;;;7.00;99.90;;;;;;4977309;28;20546;-73
2024/02/24 07:52:50;;;;;;;0.97;0.80;;;7.10;99.90;;;;;;4975706;28;20469;-72
2024/02/24 07:55:18;;;;;;;1.57;1.20;;;7.30;99.90;;;;;;4983781;28;20493;-73
2024/02/24 07:57:44;;;;;;;1.27;1.17;;;7.30;99.90;;;;;;4975102;28;20609;-74
2024/02/24 08:00:12;;;;;;;1.30;0.83;;;7.40;99.90;;;;;;4980052;28;20468;-74
2024/02/24 08:02:40;;;;;;;2.13;1.17;;;7.50;99.90;;;;;;4983123;28;20557;-74
2024/02/24 08:05:09;;;;;;;1.10;1.00;;;7.40;99.90;;;;;;4980832;28;20471;-73
2024/02/24 08:07:36;;;;;;;0.90;0.70;;;7.30;99.90;;;;;;4974525;28;20463;-73
2024/02/24 08:10:03;;;;;;;1.00;0.80;;;7.20;99.90;;;;;;4983213;28;20478;-73
2024/02/24 08:12:29;;;;;;;1.40;1.10;;;7.20;99.90;;;;;;4982032;28;20469;-74
2024/02/24 08:14:56;;;;;;;4.40;1.57;;;7.30;99.90;;;;;;4982921;28;20516;-74
2024/02/24 08:17:23;;;;;;;4.73;1.47;;;7.30;99.90;;;;;;4978077;28;21250;-74
2024/02/24 08:19:49;;;;;;;1.00;0.87;;;7.40;99.90;;;;;;4982105;28;20467;-74
2024/02/24 08:22:18;;;;;;;1.40;0.93;;;7.50;99.90;;;;;;4984255;28;20466;-73
2024/02/24 08:24:44;;;;;;;1.00;0.80;;;7.60;99.90;;;;;;4981510;28;20537;-74
2024/02/24 08:27:11;;;;;;;1.37;1.00;;;7.40;99.90;;;;;;4976796;28;20977;-74
2024/02/24 08:29:38;;;;;;;8.73;2.70;;;7.50;99.90;;;;;;4974674;28;20562;-74
2024/02/24 08:32:05;;;;;;;1.40;0.80;;;7.50;99.90;;;;;;4977793;28;20449;-73
2024/02/24 08:34:32;;;;;;;4.47;1.80;;;7.60;99.90;;;;;;4979589;28;20437;-74
2024/02/24 08:36:59;;;;;;;1.20;1.07;;;7.60;99.90;;;;;;4977506;28;20470;-75
2024/02/24 08:39:27;;;;;;;2.80;1.20;;;7.50;99.90;;;;;;4983351;28;20837;-73
2024/02/24 08:41:53;;;;;;;1.17;0.93;;;7.60;99.90;;;;;;4980216;28;20493;-74
2024/02/24 08:44:20;;;;;;;11.53;3.50;;;7.60;99.90;;;;;;4983559;28;20480;-74
2024/02/24 08:46:47;;;;;;;4.10;1.27;;;7.80;99.90;;;;;;4979458;28;20466;-74
2024/02/24 08:49:13;;;;;;;1.30;0.80;;;8.00;99.90;;;;;;4983807;28;20516;-73
2024/02/24 08:51:40;;;;;;;1.60;1.50;;;8.10;99.90;;;;;;4983611;28;20482;-74
2024/02/24 08:54:08;;;;;;;1.00;0.70;;;8.00;99.90;;;;;;4973641;28;20537;-74
2024/02/24 08:56:37;;;;;;;2.47;1.33;;;8.00;99.90;;;;;;4980061;28;20434;-73
2024/02/24 08:59:04;;;;;;;1.00;0.80;;;8.10;99.90;;;;;;4982585;28;20997;-75
2024/02/24 09:01:30;;;;;;;1.00;0.70;;;8.10;99.90;;;;;;4987459;28;20538;-74
2024/02/24 09:03:59;;;;;;;1.50;1.10;;;8.00;99.90;;;;;;4977709;28;20470;-74
2024/02/24 09:06:26;;;;;;;1.00;0.90;;;7.90;99.90;;;;;;4979773;28;20465;-74
2024/02/24 09:08:52;;;;;;;1.67;1.30;;;7.80;99.90;;;;;;4980542;28;20497;-73
2024/02/24 09:11:19;;;;;;;3.07;1.63;;;7.80;99.90;;;;;;4982547;28;20545;-74
2024/02/24 09:13:48;;;;;;;1.00;0.80;;;8.10;99.90;;;;;;4973908;28;20470;-74
2024/02/24 09:16:16;;;;;;;0.90;0.77;;;8.20;99.90;;;;;;4980786;28;20462;-75
2024/02/24 09:18:43;;;;;;;1.00;0.70;;;7.90;99.90;;;;;;4981760;28;20495;-74
2024/02/24 09:21:10;;;;;;;1.30;1.00;;;8.00;99.90;;;;;;4982279;28;20478;-74
2024/02/24 09:23:36;;;;;;;1.00;0.80;;;7.90;99.90;;;;;;4977164;28;20441;-73
2024/02/24 09:26:03;;;;;;;1.00;0.90;;;7.80;99.90;;;;;;4978664;28;20736;-74
2024/02/24 09:28:30;;;;;;;1.00;0.73;;;7.80;99.90;;;;;;4972498;28;20494;-74
2024/02/24 09:30:58;;;;;;;0.90;0.70;;;7.50;99.90;;;;;;4976063;28;20465;-73
2024/02/24 09:33:24;;;;;;;1.10;0.93;;;7.70;99.90;;;;;;4978415;28;20466;-73
2024/02/24 09:35:51;;;;;;;1.00;0.80;;;7.80;99.90;;;;;;4982906;28;20453;-73
2024/02/24 09:38:17;;;;;;;1.10;1.00;;;7.80;99.90;;;;;;4980716;28;20230;-73
2024/02/24 09:40:44;;;;;;;1.37;0.80;;;7.50;99.90;;;;;;4981843;28;20485;-74
2024/02/24 09:43:11;;;;;;;0.90;0.70;;;7.70;99.90;;;;;;4978580;28;20463;-73
2024/02/24 09:45:41;;;;;;;1.20;1.10;;;7.50;99.90;;;;;;4982075;28;20554;-73
2024/02/24 09:48:10;;;;;;;1.60;0.80;;;7.30;99.90;;;;;;4979411;28;20466;-75
2024/02/24 09:50:36;;;;;;;0.90;0.70;;;7.30;99.90;;;;;;4981553;28;20443;-74
2024/02/24 09:53:03;;;;;;;1.00;0.80;;;7.30;99.90;;;;;;4984440;28;21097;-73
2024/02/24 09:55:30;;;;;;;1.00;0.80;;;7.30;99.90;;;;;;4979251;28;20466;-73
2024/02/24 09:57:58;;;;;;;1.00;0.80;;;7.20;99.90;;;;;;4971974;28;20462;-73
2024/02/24 10:00:24;;;;;;;1.00;0.80;;;7.00;99.90;;;;;;4984045;28;20503;-73
2024/02/24 10:02:52;;;;;;;1.20;0.93;;;7.00;99.90;;;;;;4980928;28;20505;-73
2024/02/24 10:05:20;;;;;;;0.90;0.70;;;7.10;99.90;;;;;;4983171;28;20469;-73
2024/02/24 10:07:47;;;;;;;5.03;0.90;;;7.30;99.90;;;;;;4976398;28;20861;-73
2024/02/24 10:10:16;;;;;;;1.10;0.90;;;7.20;99.90;;;;;;4977609;28;20485;-74
2024/02/24 10:12:56;;;;;;;2.60;0.97;;;7.00;99.90;;;;;;4987354;28;21243;-73
2024/02/24 10:15:23;;;;;;;1.27;1.17;;;6.90;99.90;;;;;;4983589;28;20856;-74
2024/02/24 10:17:49;;;;;;;1.43;1.23;;;6.80;99.90;;;;;;4972321;28;20486;-74
2024/02/24 10:20:16;;;;;;;1.20;1.00;;;6.80;99.90;;;;;;4976202;28;20477;-74
2024/02/24 10:22:44;;;;;;;2.03;1.10;;;6.80;99.90;;;;;;4984397;28;20466;-74
2024/02/24 10:25:11;;;;;;;1.57;1.23;;;7.00;99.90;;;;;;4969288;28;20472;-74
2024/02/24 10:27:39;;;;;;;1.37;1.00;;;7.20;99.90;;;;;;4980546;28;20496;-74
2024/02/24 10:30:07;;;;;;;1.40;1.30;;;7.50;99.90;;;;;;4982759;28;20487;-74
2024/02/24 10:32:34;;;;;;;1.07;0.80;;;7.70;99.90;;;;;;4982472;28;20466;-74
2024/02/24 10:35:03;;;;;;;1.10;1.00;;;8.10;99.90;;;;;;4983720;28;20462;-73
2024/02/24 10:37:31;;;;;;;0.90;0.70;;;8.30;99.90;;;;;;4981376;28;20482;-73
2024/02/24 10:40:01;;;;;;;1.00;0.83;;;8.20;99.90;;;;;;4980037;28;20832;-74
2024/02/24 10:42:29;;;;;;;1.00;0.90;;;8.20;99.90;;;;;;4976658;28;20569;-74
2024/02/24 10:44:56;;;;;;;1.00;0.80;;;8.40;99.90;;;;;;4979713;28;20460;-73
2024/02/24 10:47:23;;;;;;;0.90;0.70;;;8.80;99.90;;;;;;4985270;28;21268;-73
2024/02/24 10:49:50;;;;;;;0.97;0.77;;;9.20;99.90;;;;;;4979791;28;20490;-74
2024/02/24 10:52:18;;;;;;;1.77;1.47;;;9.20;99.90;;;;;;4985433;28;20465;-73
2024/02/24 10:54:47;;;;;;;1.30;1.20;;;9.40;99.90;;;;;;4979224;28;20806;-74
2024/02/24 10:57:17;;;;;;;1.00;0.80;;;9.10;99.90;;;;;;4975282;28;20458;-74
2024/02/24 10:59:44;;;;;;;1.10;0.80;;;9.00;99.90;;;;;;4977686;28;20497;-74
2024/02/24 11:02:12;;;;;;;1.37;0.80;;;9.30;99.90;;;;;;4981194;28;20494;-74
2024/02/24 11:05:06;;;;;;;1.73;0.90;;;9.70;99.90;;;;;;5267020;22;20488;-71
2024/02/24 11:08:14;;;;;;;2.53;1.20;;;10.20;99.90;;;;;;4997380;28;20824;-71
2024/02/24 11:10:41;;;;;;;1.00;0.83;;;9.90;99.90;;;;;;4946284;28;20465;-72
2024/02/24 11:13:09;;;;;;;3.23;1.33;;;10.30;99.90;;;;;;4991890;28;20457;-72
2024/02/24 11:15:38;;;;;;;2.27;0.80;;;10.40;99.90;;;;;;4991587;28;20465;-72
2024/02/24 11:18:06;;;;;;;2.13;1.00;;;10.00;99.90;;;;;;4981259;28;21111;-72
2024/02/24 11:20:54;;;;;;;0.90;0.70;;;9.80;99.90;;;;;;4988052;28;20575;-72
2024/02/24 11:23:22;;;;;;;1.20;1.10;;;10.40;99.90;;;;;;4990093;28;20458;-72
2024/02/24 11:25:50;;;;;;;0.90;0.70;;;11.50;99.90;;;;;;4991325;28;20558;-72
2024/02/24 11:28:22;;;;;;;1.40;0.90;;;12.50;99.90;;;;;;4987709;28;20486;-72
2024/02/24 11:30:51;;;;;;;1.00;0.80;;;12.80;99.90;;;;;;4997976;28;20472;-71
2024/02/24 11:33:25;;;;;;;1.17;1.03;;;13.20;99.90;;;;;;4996974;28;20549;-71
2024/02/24 11:35:53;;;;;;;1.70;1.10;;;13.40;99.90;;;;;;4994029;28;20468;-71
2024/02/24 11:38:20;;;;;;;1.40;1.00;;;13.20;99.90;;;;;;4995407;28;20894;-72
2024/02/24 11:40:48;;;;;;;1.40;0.80;;;12.30;99.90;;;;;;4999409;28;20480;-72
2024/02/24 11:43:15;;;;;;;1.73;1.10;;;11.60;99.90;;;;;;5000304;28;20453;-71
2024/02/24 11:45:47;;;;;;;1.60;0.80;;;11.30;99.90;;;;;;5000339;28;20472;-72
2024/02/24 11:48:14;;;;;;;1.10;0.90;;;10.80;99.90;;;;;;4995445;28;20531;-72
2024/02/24 11:50:41;;;;;;;1.10;0.80;;;10.30;99.90;;;;;;4996684;28;20477;-71
2024/02/24 11:53:08;;;;;;;2.13;1.23;;;9.90;99.90;;;;;;5000968;28;20515;-73
2024/02/24 11:55:35;;;;;;;1.67;0.80;;;9.70;99.90;;;;;;4999617;28;20444;-72
2024/02/24 11:58:07;;;;;;;1.57;1.00;;;9.50;99.90;;;;;;4999850;28;20978;-72
2024/02/24 12:00:34;;;;;;;1.60;1.03;;;9.60;99.90;;;;;;4994262;28;20552;-71
2024/02/24 12:03:03;;;;;;;1.00;0.83;;;10.70;99.90;;;;;;4995821;28;20473;-72
2024/02/24 12:05:30;;;;;;;1.10;1.00;;;12.30;99.90;;;;;;4996395;28;20469;-72
2024/02/24 12:08:00;;;;;;;1.17;0.80;;;12.00;99.90;;;;;;4998822;28;20485;-71
2024/02/24 12:10:26;;;;;;;1.00;0.70;;;11.10;99.90;;;;;;4995268;28;20466;-72
2024/02/24 12:12:53;;;;;;;1.10;0.70;;;11.00;99.90;;;;;;5000099;28;20465;-72
2024/02/24 12:15:20;;;;;;;2.07;1.50;;;11.80;99.90;;;;;;4996191;28;20490;-72
2024/02/24 12:17:49;;;;;;;1.00;0.80;;;13.20;99.90;;;;;;4999712;28;20465;-72
2024/02/24 12:20:17;;;;;;;1.40;1.10;;;14.60;99.90;;;;;;4992896;28;21557;-71
2024/02/24 12:22:44;;;;;;;1.27;0.80;;;15.70;99.90;;;;;;4996875;28;20485;-72
2024/02/24 12:25:14;;;;;;;1.17;0.83;;;16.30;99.90;;;;;;4997531;28;20484;-71
2024/02/24 12:27:42;;;;;;;2.67;1.53;;;15.10;99.90;;;;;;4999964;28;20461;-71
2024/02/24 12:30:10;;;;;;;4.17;1.27;;;14.90;99.90;;;;;;4997971;28;20861;-72
2024/02/24 12:32:37;;;;;;;1.50;0.83;;;15.00;99.90;;;;;;4994296;28;20449;-72
2024/02/24 12:35:04;;;;;;;1.97;1.07;;;13.50;99.90;;;;;;4998757;28;20465;-72
2024/02/24 12:37:34;;;;;;;1.17;0.70;;;12.10;99.90;;;;;;4993262;28;20458;-72
2024/02/24 12:40:01;;;;;;;1.10;1.00;;;11.40;99.90;;;;;;4995004;28;20493;-72
2024/02/24 12:42:28;;;;;;;5.47;0.90;;;10.90;99.90;;;;;;4996140;28;20516;-71
2024/02/24 12:44:55;;;;;;;1.00;0.80;;;10.70;99.90;;;;;;4997542;28;20501;-73
2024/02/24 12:47:21;;;;;;;1.10;0.80;;;10.20;99.90;;;;;;4996708;28;20468;-71
2024/02/24 12:49:48;;;;;;;1.00;0.80;;;9.60;99.90;;;;;;4994790;28;21071;-72
2024/02/24 12:52:15;;;;;;;1.10;0.80;;;9.80;99.90;;;;;;4993522;28;20465;-73
2024/02/24 12:54:44;;;;;;;1.80;0.90;;;9.70;99.90;;;;;;4997018;28;21165;-72
2024/02/24 12:57:11;;;;;;;1.10;0.93;;;10.20;99.90;;;;;;4996407;28;20956;-73